OINR  Ramsar  Airport

Iran

Add Bookmark
ICAO OINR
IATA RZR
Type Airport
Status Operational
Latitude
36° 54' 35" N
36.909901
Longitude
50° 40' 46" E
50.679600
Local (DST + 5) UTC (GMT + 4)
Jul 30, 2015 10:40 Jul 30, 2015 18:10
Sunrise-Sunset Local UTC
Begin Civil Twilight 05:40 01:10
Sunrise 06:09 01:39
Sunset 08:17 15:47
End Civil Twilight 08:46 16:16
VFR
VFR
MVFR
MVFR
IFR
IFR
LIFR
LIFR
Unknown
Unavailable

Current Weather

METAR Observed VFR
OINR 301700Z 00000KT CAVOK 27/23 Q1009 Thu, Jul 30, 2015 @ 17:00 UTC
(1 Hour, 10 Minutes ago)
Visual Flight Rules
Wind Visibility Conditions
Calm 10 km or more
  • No significant weather
Temperatures Readings Precipitation
Current Temp
27°C
81°F
Dewpoint
23°C
73°F
Heat Index
30°C
86°
Humidity 79%
Altimeter 29.79" Hg
Sea Level Pressure 1,009 mb
None Recorded

Additional weather within a 92.6km radius of OINR

Map ICAO Location
OINN 75km E/SE (111°)
VFR
VFR
MVFR
MVFR
IFR
IFR
LIFR
LIFR
Unknown
Unavailable
-
-

CheckWX.com is intended as a tool to help pilots better visualize weather data. It is not intended as a substitute for an official weather briefing obtained from a Flight Service Station. CheckWX.com does not meet the FAA requirements for an official pre-flight weather briefing. Therefore, it's important that pilots still call and obtain an official FSS pre-flight weather briefing.

© 2007-2015 CheckWX.com
18:10:36 UTC